sensor_id;sensor_type;location;lat;lon;timestamp;temperature;humidity
14473;DHT22;7322;50.872;4.386;2023-12-20T00:02:17;17.00;99.90
14473;DHT22;7322;50.872;4.386;2023-12-20T00:04:44;16.90;99.90
14473;DHT22;7322;50.872;4.386;2023-12-20T00:07:11;16.90;99.90
14473;DHT22;7322;50.872;4.386;2023-12-20T00:09:38;16.80;99.90
14473;DHT22;7322;50.872;4.386;2023-12-20T00:12:06;16.90;99.90
14473;DHT22;7322;50.872;4.386;2023-12-20T00:14:33;16.90;99.90
14473;DHT22;7322;50.872;4.386;2023-12-20T00:17:00;16.80;99.90
14473;DHT22;7322;50.872;4.386;2023-12-20T00:19:28;16.80;99.90
14473;DHT22;7322;50.872;4.386;2023-12-20T00:21:55;16.80;99.90
14473;DHT22;7322;50.872;4.386;2023-12-20T00:24:23;16.90;99.90
14473;DHT22;7322;50.872;4.386;2023-12-20T00:26:50;16.80;99.90
14473;DHT22;7322;50.872;4.386;2023-12-20T00:29:17;16.80;99.90
14473;DHT22;7322;50.872;4.386;2023-12-20T00:31:44;16.80;99.90
14473;DHT22;7322;50.872;4.386;2023-12-20T00:34:12;16.80;99.90
14473;DHT22;7322;50.872;4.386;2023-12-20T00:36:41;16.80;99.90
14473;DHT22;7322;50.872;4.386;2023-12-20T00:39:08;16.80;99.90
14473;DHT22;7322;50.872;4.386;2023-12-20T00:41:35;16.80;99.90
14473;DHT22;7322;50.872;4.386;2023-12-20T00:44:03;16.70;99.90
14473;DHT22;7322;50.872;4.386;2023-12-20T00:46:29;16.70;99.90
14473;DHT22;7322;50.872;4.386;2023-12-20T00:48:57;16.70;99.90
14473;DHT22;7322;50.872;4.386;2023-12-20T00:51:24;16.70;99.90
14473;DHT22;7322;50.872;4.386;2023-12-20T00:53:53;16.70;99.90
14473;DHT22;7322;50.872;4.386;2023-12-20T00:56:22;16.70;99.90
14473;DHT22;7322;50.872;4.386;2023-12-20T00:58:50;16.60;99.90
14473;DHT22;7322;50.872;4.386;2023-12-20T01:01:17;16.60;99.90
14473;DHT22;7322;50.872;4.386;2023-12-20T01:03:44;16.70;99.90
14473;DHT22;7322;50.872;4.386;2023-12-20T01:06:12;16.60;99.90
14473;DHT22;7322;50.872;4.386;2023-12-20T01:08:40;16.70;99.90
14473;DHT22;7322;50.872;4.386;2023-12-20T01:11:08;16.60;99.90
14473;DHT22;7322;50.872;4.386;2023-12-20T01:13:35;16.60;99.90
14473;DHT22;7322;50.872;4.386;2023-12-20T01:16:03;16.60;99.90
14473;DHT22;7322;50.872;4.386;2023-12-20T01:18:31;16.50;99.90
14473;DHT22;7322;50.872;4.386;2023-12-20T01:21:01;16.60;99.90
14473;DHT22;7322;50.872;4.386;2023-12-20T01:23:29;16.60;99.90
14473;DHT22;7322;50.872;4.386;2023-12-20T01:25:56;16.60;99.90
14473;DHT22;7322;50.872;4.386;2023-12-20T01:28:29;16.50;99.90
14473;DHT22;7322;50.872;4.386;2023-12-20T01:30:57;16.60;99.90
14473;DHT22;7322;50.872;4.386;2023-12-20T01:33:24;16.50;99.90
14473;DHT22;7322;50.872;4.386;2023-12-20T01:35:51;16.50;99.90
14473;DHT22;7322;50.872;4.386;2023-12-20T01:38:18;16.50;99.90
14473;DHT22;7322;50.872;4.386;2023-12-20T01:40:45;16.50;99.90
14473;DHT22;7322;50.872;4.386;2023-12-20T01:43:13;16.50;99.90
14473;DHT22;7322;50.872;4.386;2023-12-20T01:45:41;16.50;99.90
14473;DHT22;7322;50.872;4.386;2023-12-20T01:48:11;16.50;99.90
14473;DHT22;7322;50.872;4.386;2023-12-20T01:50:38;16.50;99.90
14473;DHT22;7322;50.872;4.386;2023-12-20T01:53:07;16.50;99.90
14473;DHT22;7322;50.872;4.386;2023-12-20T01:55:38;16.50;99.90
14473;DHT22;7322;50.872;4.386;2023-12-20T01:58:07;16.50;99.90
14473;DHT22;7322;50.872;4.386;2023-12-20T02:00:36;16.50;99.90
14473;DHT22;7322;50.872;4.386;2023-12-20T02:03:05;16.40;99.90
14473;DHT22;7322;50.872;4.386;2023-12-20T02:05:33;16.50;99.90
14473;DHT22;7322;50.872;4.386;2023-12-20T02:08:00;16.50;99.90
14473;DHT22;7322;50.872;4.386;2023-12-20T02:10:28;16.40;99.90
14473;DHT22;7322;50.872;4.386;2023-12-20T02:12:55;16.40;99.90
14473;DHT22;7322;50.872;4.386;2023-12-20T02:15:22;16.50;99.90
14473;DHT22;7322;50.872;4.386;2023-12-20T02:17:50;16.40;99.90
14473;DHT22;7322;50.872;4.386;2023-12-20T02:20:18;16.40;99.90
14473;DHT22;7322;50.872;4.386;2023-12-20T02:22:47;16.40;99.90
14473;DHT22;7322;50.872;4.386;2023-12-20T02:25:14;16.40;99.90
14473;DHT22;7322;50.872;4.386;2023-12-20T02:27:41;16.40;99.90
14473;DHT22;7322;50.872;4.386;2023-12-20T02:30:09;16.40;99.90
14473;DHT22;7322;50.872;4.386;2023-12-20T02:32:36;16.40;99.90
14473;DHT22;7322;50.872;4.386;2023-12-20T02:35:04;16.40;99.90
14473;DHT22;7322;50.872;4.386;2023-12-20T02:37:32;16.40;99.90
14473;DHT22;7322;50.872;4.386;2023-12-20T02:40:01;16.40;99.90
14473;DHT22;7322;50.872;4.386;2023-12-20T02:42:28;16.40;99.90
14473;DHT22;7322;50.872;4.386;2023-12-20T02:44:56;16.40;99.90
14473;DHT22;7322;50.872;4.386;2023-12-20T02:47:23;16.40;99.90
14473;DHT22;7322;50.872;4.386;2023-12-20T02:49:50;16.30;99.90
14473;DHT22;7322;50.872;4.386;2023-12-20T02:52:18;16.30;99.90
14473;DHT22;7322;50.872;4.386;2023-12-20T02:54:45;16.30;99.90
14473;DHT22;7322;50.872;4.386;2023-12-20T02:57:14;16.30;99.90
14473;DHT22;7322;50.872;4.386;2023-12-20T02:59:41;16.30;99.90
14473;DHT22;7322;50.872;4.386;2023-12-20T03:02:08;16.30;99.90
14473;DHT22;7322;50.872;4.386;2023-12-20T03:04:37;16.30;99.90
14473;DHT22;7322;50.872;4.386;2023-12-20T03:07:04;16.30;99.90
14473;DHT22;7322;50.872;4.386;2023-12-20T03:09:31;16.30;99.90
14473;DHT22;7322;50.872;4.386;2023-12-20T03:11:58;16.30;99.90
14473;DHT22;7322;50.872;4.386;2023-12-20T03:14:26;16.30;99.90
14473;DHT22;7322;50.872;4.386;2023-12-20T03:16:53;16.30;99.90
14473;DHT22;7322;50.872;4.386;2023-12-20T03:19:20;16.30;99.90
14473;DHT22;7322;50.872;4.386;2023-12-20T03:21:48;16.30;99.90
14473;DHT22;7322;50.872;4.386;2023-12-20T03:24:15;16.30;99.90
14473;DHT22;7322;50.872;4.386;2023-12-20T03:26:42;16.30;99.90
14473;DHT22;7322;50.872;4.386;2023-12-20T03:29:09;16.30;99.90
14473;DHT22;7322;50.872;4.386;2023-12-20T03:31:37;16.30;99.90
14473;DHT22;7322;50.872;4.386;2023-12-20T03:34:04;16.30;99.90
14473;DHT22;7322;50.872;4.386;2023-12-20T03:36:31;16.30;99.90
14473;DHT22;7322;50.872;4.386;2023-12-20T03:38:58;16.30;99.90
14473;DHT22;7322;50.872;4.386;2023-12-20T03:41:25;16.30;99.90
14473;DHT22;7322;50.872;4.386;2023-12-20T03:43:53;16.30;99.90
14473;DHT22;7322;50.872;4.386;2023-12-20T03:46:20;16.20;99.90
14473;DHT22;7322;50.872;4.386;2023-12-20T03:48:48;16.30;99.90
14473;DHT22;7322;50.872;4.386;2023-12-20T03:51:15;16.30;99.90
14473;DHT22;7322;50.872;4.386;2023-12-20T03:53:42;16.30;99.90
14473;DHT22;7322;50.872;4.386;2023-12-20T03:56:09;16.30;99.90
14473;DHT22;7322;50.872;4.386;2023-12-20T03:58:36;16.20;99.90
14473;DHT22;7322;50.872;4.386;2023-12-20T04:01:03;16.30;99.90
14473;DHT22;7322;50.872;4.386;2023-12-20T04:03:30;16.30;99.90
14473;DHT22;7322;50.872;4.386;2023-12-20T04:05:59;16.30;99.90
14473;DHT22;7322;50.872;4.386;2023-12-20T04:08:26;16.30;99.90
14473;DHT22;7322;50.872;4.386;2023-12-20T04:10:54;16.30;99.90
14473;DHT22;7322;50.872;4.386;2023-12-20T04:13:21;16.20;99.90
14473;DHT22;7322;50.872;4.386;2023-12-20T04:15:48;16.20;99.90
14473;DHT22;7322;50.872;4.386;2023-12-20T04:18:16;16.20;99.90
14473;DHT22;7322;50.872;4.386;2023-12-20T04:20:43;16.20;99.90
14473;DHT22;7322;50.872;4.386;2023-12-20T04:23:12;16.20;99.90
14473;DHT22;7322;50.872;4.386;2023-12-20T04:25:39;16.20;99.90
14473;DHT22;7322;50.872;4.386;2023-12-20T04:28:07;16.20;99.90
14473;DHT22;7322;50.872;4.386;2023-12-20T04:30:35;16.20;99.90
14473;DHT22;7322;50.872;4.386;2023-12-20T04:33:02;16.20;99.90
14473;DHT22;7322;50.872;4.386;2023-12-20T04:35:29;16.20;99.90
14473;DHT22;7322;50.872;4.386;2023-12-20T04:37:56;16.20;99.90
14473;DHT22;7322;50.872;4.386;2023-12-20T04:40:25;16.20;99.90
14473;DHT22;7322;50.872;4.386;2023-12-20T04:42:52;16.20;99.90
14473;DHT22;7322;50.872;4.386;2023-12-20T04:45:19;16.20;99.90
14473;DHT22;7322;50.872;4.386;2023-12-20T04:47:48;16.20;99.90
14473;DHT22;7322;50.872;4.386;2023-12-20T04:50:15;16.20;99.90
14473;DHT22;7322;50.872;4.386;2023-12-20T04:52:43;16.20;99.90
14473;DHT22;7322;50.872;4.386;2023-12-20T04:55:10;16.20;99.90
14473;DHT22;7322;50.872;4.386;2023-12-20T04:57:39;16.20;99.90
14473;DHT22;7322;50.872;4.386;2023-12-20T05:00:07;16.20;99.90
14473;DHT22;7322;50.872;4.386;2023-12-20T05:02:35;16.20;99.90
14473;DHT22;7322;50.872;4.386;2023-12-20T05:05:03;16.10;99.90
14473;DHT22;7322;50.872;4.386;2023-12-20T05:07:31;16.20;99.90
14473;DHT22;7322;50.872;4.386;2023-12-20T05:09:58;16.20;99.90
14473;DHT22;7322;50.872;4.386;2023-12-20T05:12:25;16.20;99.90
14473;DHT22;7322;50.872;4.386;2023-12-20T05:14:54;16.20;99.90
14473;DHT22;7322;50.872;4.386;2023-12-20T05:17:21;16.20;99.90
14473;DHT22;7322;50.872;4.386;2023-12-20T05:19:48;16.20;99.90
14473;DHT22;7322;50.872;4.386;2023-12-20T05:22:15;16.10;99.90
14473;DHT22;7322;50.872;4.386;2023-12-20T05:24:41;16.20;99.90
14473;DHT22;7322;50.872;4.386;2023-12-20T05:27:08;16.20;99.90
14473;DHT22;7322;50.872;4.386;2023-12-20T05:29:36;16.20;99.90
14473;DHT22;7322;50.872;4.386;2023-12-20T05:32:05;16.20;99.90
14473;DHT22;7322;50.872;4.386;2023-12-20T05:34:32;16.20;99.90
14473;DHT22;7322;50.872;4.386;2023-12-20T05:36:59;16.10;99.90
14473;DHT22;7322;50.872;4.386;2023-12-20T05:39:27;16.10;99.90
14473;DHT22;7322;50.872;4.386;2023-12-20T05:41:54;16.10;99.90
14473;DHT22;7322;50.872;4.386;2023-12-20T05:44:21;16.20;99.90
14473;DHT22;7322;50.872;4.386;2023-12-20T05:46:50;16.20;99.90
14473;DHT22;7322;50.872;4.386;2023-12-20T05:49:18;16.20;99.90
14473;DHT22;7322;50.872;4.386;2023-12-20T05:51:45;16.20;99.90
14473;DHT22;7322;50.872;4.386;2023-12-20T05:54:12;16.20;99.90
14473;DHT22;7322;50.872;4.386;2023-12-20T05:56:39;16.20;99.90
14473;DHT22;7322;50.872;4.386;2023-12-20T05:59:06;16.60;99.90
14473;DHT22;7322;50.872;4.386;2023-12-20T06:01:33;17.20;99.90
14473;DHT22;7322;50.872;4.386;2023-12-20T06:04:00;18.20;99.90
14473;DHT22;7322;50.872;4.386;2023-12-20T06:06:31;19.00;99.90
14473;DHT22;7322;50.872;4.386;2023-12-20T06:08:58;19.60;99.90
14473;DHT22;7322;50.872;4.386;2023-12-20T06:11:26;20.10;99.90
14473;DHT22;7322;50.872;4.386;2023-12-20T06:13:53;20.60;99.90
14473;DHT22;7322;50.872;4.386;2023-12-20T06:16:20;20.90;99.90
14473;DHT22;7322;50.872;4.386;2023-12-20T06:18:47;21.20;99.90
14473;DHT22;7322;50.872;4.386;2023-12-20T06:21:13;21.50;99.90
14473;DHT22;7322;50.872;4.386;2023-12-20T06:23:43;21.50;99.90
14473;DHT22;7322;50.872;4.386;2023-12-20T06:26:10;21.60;99.90
14473;DHT22;7322;50.872;4.386;2023-12-20T06:28:37;21.60;99.90
14473;DHT22;7322;50.872;4.386;2023-12-20T06:31:04;21.60;99.90
14473;DHT22;7322;50.872;4.386;2023-12-20T06:33:31;21.50;99.90
14473;DHT22;7322;50.872;4.386;2023-12-20T06:35:58;21.40;99.90
14473;DHT22;7322;50.872;4.386;2023-12-20T06:38:25;21.20;99.90
14473;DHT22;7322;50.872;4.386;2023-12-20T06:40:54;21.20;99.90
14473;DHT22;7322;50.872;4.386;2023-12-20T06:43:23;21.00;99.90
14473;DHT22;7322;50.872;4.386;2023-12-20T06:45:51;20.90;99.90
14473;DHT22;7322;50.872;4.386;2023-12-20T06:48:17;20.90;99.90
14473;DHT22;7322;50.872;4.386;2023-12-20T06:50:44;20.80;99.90
14473;DHT22;7322;50.872;4.386;2023-12-20T06:53:11;20.70;99.90
14473;DHT22;7322;50.872;4.386;2023-12-20T06:55:38;20.60;99.90
14473;DHT22;7322;50.872;4.386;2023-12-20T06:58:07;20.60;99.90
14473;DHT22;7322;50.872;4.386;2023-12-20T07:00:34;20.50;99.90
14473;DHT22;7322;50.872;4.386;2023-12-20T07:03:01;20.40;99.90
14473;DHT22;7322;50.872;4.386;2023-12-20T07:05:29;20.30;99.90
14473;DHT22;7322;50.872;4.386;2023-12-20T07:07:56;20.30;99.90
14473;DHT22;7322;50.872;4.386;2023-12-20T07:10:23;20.10;99.90
14473;DHT22;7322;50.872;4.386;2023-12-20T07:12:50;20.10;99.90
14473;DHT22;7322;50.872;4.386;2023-12-20T07:15:19;20.00;99.90
14473;DHT22;7322;50.872;4.386;2023-12-20T07:17:46;19.90;99.90
14473;DHT22;7322;50.872;4.386;2023-12-20T07:20:13;19.90;99.90
14473;DHT22;7322;50.872;4.386;2023-12-20T07:22:40;19.80;99.90
14473;DHT22;7322;50.872;4.386;2023-12-20T07:25:07;19.70;99.90
14473;DHT22;7322;50.872;4.386;2023-12-20T07:27:35;19.70;99.90
14473;DHT22;7322;50.872;4.386;2023-12-20T07:30:04;19.60;99.90
14473;DHT22;7322;50.872;4.386;2023-12-20T07:32:33;19.50;99.90
14473;DHT22;7322;50.872;4.386;2023-12-20T07:35:00;19.40;99.90
14473;DHT22;7322;50.872;4.386;2023-12-20T07:37:27;19.30;99.90
14473;DHT22;7322;50.872;4.386;2023-12-20T07:39:53;19.30;99.90
14473;DHT22;7322;50.872;4.386;2023-12-20T07:42:20;19.20;99.90
14473;DHT22;7322;50.872;4.386;2023-12-20T07:44:48;19.20;99.90
14473;DHT22;7322;50.872;4.386;2023-12-20T07:47:15;19.10;99.90
14473;DHT22;7322;50.872;4.386;2023-12-20T07:49:49;19.00;99.90
14473;DHT22;7322;50.872;4.386;2023-12-20T07:52:17;18.80;99.90
14473;DHT22;7322;50.872;4.386;2023-12-20T07:54:46;18.80;99.90
14473;DHT22;7322;50.872;4.386;2023-12-20T07:57:13;18.60;99.90
14473;DHT22;7322;50.872;4.386;2023-12-20T07:59:40;18.50;99.90
14473;DHT22;7322;50.872;4.386;2023-12-20T08:02:07;18.50;99.90
14473;DHT22;7322;50.872;4.386;2023-12-20T08:04:34;18.40;99.90
14473;DHT22;7322;50.872;4.386;2023-12-20T08:07:03;18.50;99.90
14473;DHT22;7322;50.872;4.386;2023-12-20T08:09:30;18.50;99.90
14473;DHT22;7322;50.872;4.386;2023-12-20T08:11:59;18.40;99.90
14473;DHT22;7322;50.872;4.386;2023-12-20T08:14:26;18.60;99.90
14473;DHT22;7322;50.872;4.386;2023-12-20T08:16:53;18.40;99.90
14473;DHT22;7322;50.872;4.386;2023-12-20T08:19:20;18.40;99.90
14473;DHT22;7322;50.872;4.386;2023-12-20T08:21:48;18.30;99.90
14473;DHT22;7322;50.872;4.386;2023-12-20T08:24:16;18.40;99.90
14473;DHT22;7322;50.872;4.386;2023-12-20T08:26:43;18.40;99.90
14473;DHT22;7322;50.872;4.386;2023-12-20T08:29:15;18.30;99.90
14473;DHT22;7322;50.872;4.386;2023-12-20T08:31:41;18.30;99.90
14473;DHT22;7322;50.872;4.386;2023-12-20T08:34:19;18.20;99.90
14473;DHT22;7322;50.872;4.386;2023-12-20T08:36:47;18.10;99.90
14473;DHT22;7322;50.872;4.386;2023-12-20T08:39:15;17.90;99.90
14473;DHT22;7322;50.872;4.386;2023-12-20T08:41:42;17.90;99.90
14473;DHT22;7322;50.872;4.386;2023-12-20T08:44:09;17.80;99.90
14473;DHT22;7322;50.872;4.386;2023-12-20T08:46:36;17.80;99.90
14473;DHT22;7322;50.872;4.386;2023-12-20T08:49:03;17.80;99.90
14473;DHT22;7322;50.872;4.386;2023-12-20T08:51:30;17.70;99.90
14473;DHT22;7322;50.872;4.386;2023-12-20T08:53:58;17.70;99.90
14473;DHT22;7322;50.872;4.386;2023-12-20T08:56:26;17.60;99.90
14473;DHT22;7322;50.872;4.386;2023-12-20T08:58:54;17.60;99.90
14473;DHT22;7322;50.872;4.386;2023-12-20T09:01:25;17.60;99.90
14473;DHT22;7322;50.872;4.386;2023-12-20T09:03:53;17.60;99.90
14473;DHT22;7322;50.872;4.386;2023-12-20T09:06:20;17.60;99.90
14473;DHT22;7322;50.872;4.386;2023-12-20T09:08:47;17.60;99.90
14473;DHT22;7322;50.872;4.386;2023-12-20T09:11:14;17.60;99.90
14473;DHT22;7322;50.872;4.386;2023-12-20T09:13:43;17.60;99.90
14473;DHT22;7322;50.872;4.386;2023-12-20T09:16:10;17.60;99.90
14473;DHT22;7322;50.872;4.386;2023-12-20T09:18:38;17.60;99.90
14473;DHT22;7322;50.872;4.386;2023-12-20T09:21:05;17.60;99.90
14473;DHT22;7322;50.872;4.386;2023-12-20T09:23:32;17.60;99.90
14473;DHT22;7322;50.872;4.386;2023-12-20T09:25:59;17.60;99.90
14473;DHT22;7322;50.872;4.386;2023-12-20T09:28:26;17.60;99.90
14473;DHT22;7322;50.872;4.386;2023-12-20T09:30:55;17.60;99.90
14473;DHT22;7322;50.872;4.386;2023-12-20T09:33:22;17.70;99.90
14473;DHT22;7322;50.872;4.386;2023-12-20T09:35:50;17.90;99.90
14473;DHT22;7322;50.872;4.386;2023-12-20T09:38:18;18.00;99.90
14473;DHT22;7322;50.872;4.386;2023-12-20T09:40:46;18.10;99.90
14473;DHT22;7322;50.872;4.386;2023-12-20T09:43:15;18.20;99.90
14473;DHT22;7322;50.872;4.386;2023-12-20T09:45:46;18.20;99.90
14473;DHT22;7322;50.872;4.386;2023-12-20T09:48:19;18.20;99.90
14473;DHT22;7322;50.872;4.386;2023-12-20T09:50:48;17.90;99.90
14473;DHT22;7322;50.872;4.386;2023-12-20T09:53:15;17.80;99.90
14473;DHT22;7322;50.872;4.386;2023-12-20T09:55:42;17.70;99.90
14473;DHT22;7322;50.872;4.386;2023-12-20T09:58:12;17.70;99.90
14473;DHT22;7322;50.872;4.386;2023-12-20T10:00:46;17.70;99.90
14473;DHT22;7322;50.872;4.386;2023-12-20T10:03:44;17.70;99.90
14473;DHT22;7322;50.872;4.386;2023-12-20T10:06:14;17.70;99.90
14473;DHT22;7322;50.872;4.386;2023-12-20T10:08:51;17.70;99.90
14473;DHT22;7322;50.872;4.386;2023-12-20T10:11:21;17.70;99.90
14473;DHT22;7322;50.872;4.386;2023-12-20T10:13:59;17.70;99.90
14473;DHT22;7322;50.872;4.386;2023-12-20T10:16:27;17.70;99.90
14473;DHT22;7322;50.872;4.386;2023-12-20T10:18:56;17.70;99.90
14473;DHT22;7322;50.872;4.386;2023-12-20T10:21:26;17.70;99.90
14473;DHT22;7322;50.872;4.386;2023-12-20T10:23:58;17.70;99.90
14473;DHT22;7322;50.872;4.386;2023-12-20T10:26:29;17.70;99.90
14473;DHT22;7322;50.872;4.386;2023-12-20T10:29:00;17.70;99.90
14473;DHT22;7322;50.872;4.386;2023-12-20T10:31:30;17.70;99.90
14473;DHT22;7322;50.872;4.386;2023-12-20T10:34:00;17.70;99.90
14473;DHT22;7322;50.872;4.386;2023-12-20T10:36:31;17.70;99.90
14473;DHT22;7322;50.872;4.386;2023-12-20T10:38:59;17.70;99.90
14473;DHT22;7322;50.872;4.386;2023-12-20T10:41:29;17.70;99.90
14473;DHT22;7322;50.872;4.386;2023-12-20T10:43:58;17.70;99.90
14473;DHT22;7322;50.872;4.386;2023-12-20T10:46:26;17.70;99.90
14473;DHT22;7322;50.872;4.386;2023-12-20T10:48:56;17.50;99.90
14473;DHT22;7322;50.872;4.386;2023-12-20T10:51:25;17.50;99.90
14473;DHT22;7322;50.872;4.386;2023-12-20T10:53:55;17.40;99.90
14473;DHT22;7322;50.872;4.386;2023-12-20T10:56:24;17.30;99.90
14473;DHT22;7322;50.872;4.386;2023-12-20T10:58:52;17.30;99.90
14473;DHT22;7322;50.872;4.386;2023-12-20T11:01:19;17.30;99.90
14473;DHT22;7322;50.872;4.386;2023-12-20T11:03:54;17.20;99.90
14473;DHT22;7322;50.872;4.386;2023-12-20T11:06:32;17.20;99.90
14473;DHT22;7322;50.872;4.386;2023-12-20T11:09:08;17.20;99.90
14473;DHT22;7322;50.872;4.386;2023-12-20T11:11:52;17.10;99.90
14473;DHT22;7322;50.872;4.386;2023-12-20T11:14:27;17.20;99.90
14473;DHT22;7322;50.872;4.386;2023-12-20T11:17:07;17.30;99.90
14473;DHT22;7322;50.872;4.386;2023-12-20T11:19:36;17.60;99.90
14473;DHT22;7322;50.872;4.386;2023-12-20T11:22:05;17.80;99.90
14473;DHT22;7322;50.872;4.386;2023-12-20T11:24:34;18.20;99.90
14473;DHT22;7322;50.872;4.386;2023-12-20T11:27:03;18.60;99.90
14473;DHT22;7322;50.872;4.386;2023-12-20T11:29:32;19.10;99.90
14473;DHT22;7322;50.872;4.386;2023-12-20T11:32:01;19.40;99.90
14473;DHT22;7322;50.872;4.386;2023-12-20T11:34:31;19.60;99.90
14473;DHT22;7322;50.872;4.386;2023-12-20T11:36:59;19.70;99.90
14473;DHT22;7322;50.872;4.386;2023-12-20T11:39:30;19.80;99.90
14473;DHT22;7322;50.872;4.386;2023-12-20T11:42:04;19.90;99.90
14473;DHT22;7322;50.872;4.386;2023-12-20T11:44:33;20.00;99.90
14473;DHT22;7322;50.872;4.386;2023-12-20T11:47:03;20.10;99.90
14473;DHT22;7322;50.872;4.386;2023-12-20T11:49:36;20.30;99.90
14473;DHT22;7322;50.872;4.386;2023-12-20T11:52:03;20.30;99.90
14473;DHT22;7322;50.872;4.386;2023-12-20T11:54:33;20.40;99.90
14473;DHT22;7322;50.872;4.386;2023-12-20T11:57:01;20.50;99.90
14473;DHT22;7322;50.872;4.386;2023-12-20T11:59:28;20.60;99.90
14473;DHT22;7322;50.872;4.386;2023-12-20T12:01:56;20.60;99.90
14473;DHT22;7322;50.872;4.386;2023-12-20T12:04:26;20.60;99.90
14473;DHT22;7322;50.872;4.386;2023-12-20T12:06:53;20.60;99.90
14473;DHT22;7322;50.872;4.386;2023-12-20T12:09:20;20.60;99.90
14473;DHT22;7322;50.872;4.386;2023-12-20T12:11:49;20.60;99.90
14473;DHT22;7322;50.872;4.386;2023-12-20T12:14:16;20.60;99.90
14473;DHT22;7322;50.872;4.386;2023-12-20T12:16:46;20.60;99.90
14473;DHT22;7322;50.872;4.386;2023-12-20T12:19:20;20.50;99.90
14473;DHT22;7322;50.872;4.386;2023-12-20T12:21:49;20.60;99.90
14473;DHT22;7322;50.872;4.386;2023-12-20T12:24:20;20.60;99.90
14473;DHT22;7322;50.872;4.386;2023-12-20T12:26:51;20.50;99.90
14473;DHT22;7322;50.872;4.386;2023-12-20T12:29:18;20.50;99.90
14473;DHT22;7322;50.872;4.386;2023-12-20T12:31:45;20.40;99.90
14473;DHT22;7322;50.872;4.386;2023-12-20T12:34:12;20.30;99.90
14473;DHT22;7322;50.872;4.386;2023-12-20T12:36:39;20.30;99.90
14473;DHT22;7322;50.872;4.386;2023-12-20T12:39:06;20.20;99.90
14473;DHT22;7322;50.872;4.386;2023-12-20T12:41:34;20.10;99.90
14473;DHT22;7322;50.872;4.386;2023-12-20T12:44:02;19.90;99.90
14473;DHT22;7322;50.872;4.386;2023-12-20T12:46:29;19.90;99.90
14473;DHT22;7322;50.872;4.386;2023-12-20T12:48:56;19.70;99.90
14473;DHT22;7322;50.872;4.386;2023-12-20T12:51:23;19.60;99.90
14473;DHT22;7322;50.872;4.386;2023-12-20T12:53:50;19.50;99.90
14473;DHT22;7322;50.872;4.386;2023-12-20T12:56:17;19.40;99.90
14473;DHT22;7322;50.872;4.386;2023-12-20T12:58:45;19.30;99.90
14473;DHT22;7322;50.872;4.386;2023-12-20T13:01:16;19.30;99.90
14473;DHT22;7322;50.872;4.386;2023-12-20T13:03:46;19.20;99.90
14473;DHT22;7322;50.872;4.386;2023-12-20T13:06:16;19.10;99.90
14473;DHT22;7322;50.872;4.386;2023-12-20T13:08:43;19.10;99.90
14473;DHT22;7322;50.872;4.386;2023-12-20T13:11:10;19.00;99.90
14473;DHT22;7322;50.872;4.386;2023-12-20T13:13:37;18.80;99.90
14473;DHT22;7322;50.872;4.386;2023-12-20T13:16:05;18.70;99.90
14473;DHT22;7322;50.872;4.386;2023-12-20T13:18:34;18.60;99.90
14473;DHT22;7322;50.872;4.386;2023-12-20T13:21:01;18.50;99.90
14473;DHT22;7322;50.872;4.386;2023-12-20T13:23:28;18.50;99.90
14473;DHT22;7322;50.872;4.386;2023-12-20T13:25:55;18.50;99.90
14473;DHT22;7322;50.872;4.386;2023-12-20T13:28:22;18.40;99.90
14473;DHT22;7322;50.872;4.386;2023-12-20T13:30:49;18.30;99.90
14473;DHT22;7322;50.872;4.386;2023-12-20T13:33:16;18.20;99.90
14473;DHT22;7322;50.872;4.386;2023-12-20T13:35:45;18.20;99.90
14473;DHT22;7322;50.872;4.386;2023-12-20T13:38:13;18.20;99.90
14473;DHT22;7322;50.872;4.386;2023-12-20T13:40:40;18.10;99.90
14473;DHT22;7322;50.872;4.386;2023-12-20T13:43:07;17.90;99.90
14473;DHT22;7322;50.872;4.386;2023-12-20T13:45:36;17.90;99.90
14473;DHT22;7322;50.872;4.386;2023-12-20T13:48:03;17.90;99.90
14473;DHT22;7322;50.872;4.386;2023-12-20T13:50:32;17.90;99.90
14473;DHT22;7322;50.872;4.386;2023-12-20T13:53:02;18.00;99.90
14473;DHT22;7322;50.872;4.386;2023-12-20T13:55:31;18.00;99.90
14473;DHT22;7322;50.872;4.386;2023-12-20T13:57:58;17.90;99.90
14473;DHT22;7322;50.872;4.386;2023-12-20T14:00:26;17.80;99.90
14473;DHT22;7322;50.872;4.386;2023-12-20T14:02:53;17.70;99.90
14473;DHT22;7322;50.872;4.386;2023-12-20T14:05:19;17.50;99.90
14473;DHT22;7322;50.872;4.386;2023-12-20T14:07:53;17.40;99.90
14473;DHT22;7322;50.872;4.386;2023-12-20T14:10:28;17.30;99.90
14473;DHT22;7322;50.872;4.386;2023-12-20T14:12:56;17.40;99.90
14473;DHT22;7322;50.872;4.386;2023-12-20T14:15:24;17.30;99.90
14473;DHT22;7322;50.872;4.386;2023-12-20T14:17:51;17.30;99.90
14473;DHT22;7322;50.872;4.386;2023-12-20T14:20:20;17.20;99.90
14473;DHT22;7322;50.872;4.386;2023-12-20T14:22:59;17.20;99.90
14473;DHT22;7322;50.872;4.386;2023-12-20T14:25:33;17.20;99.90
14473;DHT22;7322;50.872;4.386;2023-12-20T14:28:04;17.10;99.90
14473;DHT22;7322;50.872;4.386;2023-12-20T14:30:31;17.10;99.90
14473;DHT22;7322;50.872;4.386;2023-12-20T14:33:00;17.10;99.90
14473;DHT22;7322;50.872;4.386;2023-12-20T14:35:27;17.10;99.90
14473;DHT22;7322;50.872;4.386;2023-12-20T14:37:54;17.10;99.90
14473;DHT22;7322;50.872;4.386;2023-12-20T14:40:21;17.00;99.90
14473;DHT22;7322;50.872;4.386;2023-12-20T14:42:50;17.00;99.90
14473;DHT22;7322;50.872;4.386;2023-12-20T14:45:17;17.00;99.90
14473;DHT22;7322;50.872;4.386;2023-12-20T14:47:45;17.00;99.90
14473;DHT22;7322;50.872;4.386;2023-12-20T14:50:14;17.00;99.90
14473;DHT22;7322;50.872;4.386;2023-12-20T14:52:45;17.00;99.90
14473;DHT22;7322;50.872;4.386;2023-12-20T14:55:12;17.00;99.90
14473;DHT22;7322;50.872;4.386;2023-12-20T14:57:40;17.00;99.90
14473;DHT22;7322;50.872;4.386;2023-12-20T15:00:09;17.00;99.90
14473;DHT22;7322;50.872;4.386;2023-12-20T15:02:40;17.00;99.90
14473;DHT22;7322;50.872;4.386;2023-12-20T15:05:07;17.00;99.90
14473;DHT22;7322;50.872;4.386;2023-12-20T15:07:35;16.90;99.90
14473;DHT22;7322;50.872;4.386;2023-12-20T15:10:04;16.90;99.90
14473;DHT22;7322;50.872;4.386;2023-12-20T15:12:32;16.90;99.90
14473;DHT22;7322;50.872;4.386;2023-12-20T15:14:59;16.90;99.90
14473;DHT22;7322;50.872;4.386;2023-12-20T15:17:28;16.90;99.90
14473;DHT22;7322;50.872;4.386;2023-12-20T15:19:56;16.90;99.90
14473;DHT22;7322;50.872;4.386;2023-12-20T15:22:23;16.90;99.90
14473;DHT22;7322;50.872;4.386;2023-12-20T15:24:51;16.90;99.90
14473;DHT22;7322;50.872;4.386;2023-12-20T15:27:20;16.90;99.90
14473;DHT22;7322;50.872;4.386;2023-12-20T15:29:49;16.90;99.90
14473;DHT22;7322;50.872;4.386;2023-12-20T15:32:17;16.90;99.90
14473;DHT22;7322;50.872;4.386;2023-12-20T15:34:48;16.80;99.90
14473;DHT22;7322;50.872;4.386;2023-12-20T15:37:15;16.80;99.90
14473;DHT22;7322;50.872;4.386;2023-12-20T15:39:42;16.80;99.90
14473;DHT22;7322;50.872;4.386;2023-12-20T15:42:10;16.80;99.90
14473;DHT22;7322;50.872;4.386;2023-12-20T15:44:38;16.80;99.90
14473;DHT22;7322;50.872;4.386;2023-12-20T15:47:05;16.80;99.90
14473;DHT22;7322;50.872;4.386;2023-12-20T15:49:34;16.80;99.90
14473;DHT22;7322;50.872;4.386;2023-12-20T15:52:04;16.80;99.90